Terminal Aerodrome Forecast
Issued by NWS Mt. Holly, NJ

Current Version | Previous Version | Text Only | Print | Product List | Glossary On
Versions: 1 2 3 4 5 6 7 8 9 10 11 12 13 14 15 16
000
FTUS41 KPHI 010528
TAFACY
TAF
KACY 010528Z 0106/0206 VRB04KT P6SM BKN120
     FM011600 16003KT P6SM OVC050
      TEMPO 0117/0119 6SM -SN OVC035
     FM011900 VRB04KT 1SM -FZRA BR OVC007
     FM020200 VRB04KT 1SM RA OVC005=

USA.gov is the U.S. government's official web portal to all federal, state and local government web resources and services.